sensor_id;sensor_type;location;lat;lon;timestamp;temperature;humidity
41678;DHT22;27364;49.026;8.712;2023-01-15T00:02:22;11.90;99.90
41678;DHT22;27364;49.026;8.712;2023-01-15T00:04:51;11.90;99.90
41678;DHT22;27364;49.026;8.712;2023-01-15T00:07:20;11.90;99.90
41678;DHT22;27364;49.026;8.712;2023-01-15T00:09:45;12.00;99.90
41678;DHT22;27364;49.026;8.712;2023-01-15T00:12:12;12.10;99.90
41678;DHT22;27364;49.026;8.712;2023-01-15T00:14:41;12.10;99.90
41678;DHT22;27364;49.026;8.712;2023-01-15T00:17:08;12.10;99.90
41678;DHT22;27364;49.026;8.712;2023-01-15T00:19:33;12.10;99.90
41678;DHT22;27364;49.026;8.712;2023-01-15T00:21:59;12.10;99.90
41678;DHT22;27364;49.026;8.712;2023-01-15T00:24:27;12.10;99.90
41678;DHT22;27364;49.026;8.712;2023-01-15T00:27:12;12.10;99.90
41678;DHT22;27364;49.026;8.712;2023-01-15T00:29:57;12.10;99.90
41678;DHT22;27364;49.026;8.712;2023-01-15T00:32:23;12.10;99.90
41678;DHT22;27364;49.026;8.712;2023-01-15T00:34:57;12.10;99.90
41678;DHT22;27364;49.026;8.712;2023-01-15T00:37:22;12.10;99.90
41678;DHT22;27364;49.026;8.712;2023-01-15T00:39:48;12.10;99.90
41678;DHT22;27364;49.026;8.712;2023-01-15T00:42:14;12.10;99.90
41678;DHT22;27364;49.026;8.712;2023-01-15T00:44:40;12.10;99.90
41678;DHT22;27364;49.026;8.712;2023-01-15T00:47:08;12.20;99.90
41678;DHT22;27364;49.026;8.712;2023-01-15T00:49:41;12.20;99.90
41678;DHT22;27364;49.026;8.712;2023-01-15T00:52:06;12.20;99.90
41678;DHT22;27364;49.026;8.712;2023-01-15T00:54:32;12.20;99.90
41678;DHT22;27364;49.026;8.712;2023-01-15T00:56:58;12.20;99.90
41678;DHT22;27364;49.026;8.712;2023-01-15T00:59:24;12.20;99.90
41678;DHT22;27364;49.026;8.712;2023-01-15T01:01:50;12.20;99.90
41678;DHT22;27364;49.026;8.712;2023-01-15T01:04:16;12.20;99.90
41678;DHT22;27364;49.026;8.712;2023-01-15T01:06:41;12.30;99.90
41678;DHT22;27364;49.026;8.712;2023-01-15T01:09:08;12.30;99.90
41678;DHT22;27364;49.026;8.712;2023-01-15T01:11:34;12.30;99.90
41678;DHT22;27364;49.026;8.712;2023-01-15T01:14:01;12.30;99.90
41678;DHT22;27364;49.026;8.712;2023-01-15T01:16:31;12.40;99.90
41678;DHT22;27364;49.026;8.712;2023-01-15T01:19:01;12.30;99.90
41678;DHT22;27364;49.026;8.712;2023-01-15T01:21:28;12.20;99.90
41678;DHT22;27364;49.026;8.712;2023-01-15T01:23:54;12.30;99.90
41678;DHT22;27364;49.026;8.712;2023-01-15T01:26:27;12.30;99.90
41678;DHT22;27364;49.026;8.712;2023-01-15T01:28:58;12.30;99.90
41678;DHT22;27364;49.026;8.712;2023-01-15T01:31:25;12.20;99.90
41678;DHT22;27364;49.026;8.712;2023-01-15T01:33:57;12.30;99.90
41678;DHT22;27364;49.026;8.712;2023-01-15T01:36:33;12.20;99.90
41678;DHT22;27364;49.026;8.712;2023-01-15T01:39:02;12.30;99.90
41678;DHT22;27364;49.026;8.712;2023-01-15T01:41:29;12.20;99.90
41678;DHT22;27364;49.026;8.712;2023-01-15T01:44:06;12.20;99.90
41678;DHT22;27364;49.026;8.712;2023-01-15T01:46:36;12.20;99.90
41678;DHT22;27364;49.026;8.712;2023-01-15T01:49:08;12.30;99.90
41678;DHT22;27364;49.026;8.712;2023-01-15T01:51:44;12.20;99.90
41678;DHT22;27364;49.026;8.712;2023-01-15T01:54:17;12.20;99.90
41678;DHT22;27364;49.026;8.712;2023-01-15T01:56:44;12.10;99.90
41678;DHT22;27364;49.026;8.712;2023-01-15T01:59:15;12.20;99.90
41678;DHT22;27364;49.026;8.712;2023-01-15T02:01:42;12.10;99.90
41678;DHT22;27364;49.026;8.712;2023-01-15T02:04:12;12.10;99.90
41678;DHT22;27364;49.026;8.712;2023-01-15T02:06:40;12.20;99.90
41678;DHT22;27364;49.026;8.712;2023-01-15T02:09:06;12.20;99.90
41678;DHT22;27364;49.026;8.712;2023-01-15T02:11:33;12.30;99.90
41678;DHT22;27364;49.026;8.712;2023-01-15T02:16:46;12.20;99.90
41678;DHT22;27364;49.026;8.712;2023-01-15T02:22:42;12.10;99.90
41678;DHT22;27364;49.026;8.712;2023-01-15T02:30:48;12.10;99.90
41678;DHT22;27364;49.026;8.712;2023-01-15T02:33:20;12.10;99.90
41678;DHT22;27364;49.026;8.712;2023-01-15T02:35:58;12.20;99.90
41678;DHT22;27364;49.026;8.712;2023-01-15T02:38:39;12.10;99.90
41678;DHT22;27364;49.026;8.712;2023-01-15T02:41:08;12.10;99.90
41678;DHT22;27364;49.026;8.712;2023-01-15T02:43:47;12.10;99.90
41678;DHT22;27364;49.026;8.712;2023-01-15T02:46:15;12.10;99.90
41678;DHT22;27364;49.026;8.712;2023-01-15T02:48:46;12.10;99.90
41678;DHT22;27364;49.026;8.712;2023-01-15T02:51:17;12.10;99.90
41678;DHT22;27364;49.026;8.712;2023-01-15T02:53:52;12.00;99.90
41678;DHT22;27364;49.026;8.712;2023-01-15T02:56:22;12.00;99.90
41678;DHT22;27364;49.026;8.712;2023-01-15T02:58:50;12.00;99.90
41678;DHT22;27364;49.026;8.712;2023-01-15T03:01:28;12.00;99.90
41678;DHT22;27364;49.026;8.712;2023-01-15T03:04:42;12.00;99.90
41678;DHT22;27364;49.026;8.712;2023-01-15T03:09:32;12.10;99.90
41678;DHT22;27364;49.026;8.712;2023-01-15T03:12:12;12.10;99.90
41678;DHT22;27364;49.026;8.712;2023-01-15T03:15:06;12.20;99.90
41678;DHT22;27364;49.026;8.712;2023-01-15T03:17:48;12.10;99.90
41678;DHT22;27364;49.026;8.712;2023-01-15T03:20:22;12.20;99.90
41678;DHT22;27364;49.026;8.712;2023-01-15T03:22:53;12.30;99.90
41678;DHT22;27364;49.026;8.712;2023-01-15T03:25:28;12.30;99.90
41678;DHT22;27364;49.026;8.712;2023-01-15T03:27:57;12.30;99.90
41678;DHT22;27364;49.026;8.712;2023-01-15T03:30:24;12.20;99.90
41678;DHT22;27364;49.026;8.712;2023-01-15T03:32:49;12.30;99.90
41678;DHT22;27364;49.026;8.712;2023-01-15T03:35:41;12.50;99.90
41678;DHT22;27364;49.026;8.712;2023-01-15T03:38:08;12.40;99.90
41678;DHT22;27364;49.026;8.712;2023-01-15T03:40:37;12.50;99.90
41678;DHT22;27364;49.026;8.712;2023-01-15T03:43:08;12.50;99.90
41678;DHT22;27364;49.026;8.712;2023-01-15T03:45:58;12.60;99.90
41678;DHT22;27364;49.026;8.712;2023-01-15T03:54:16;12.70;99.90
41678;DHT22;27364;49.026;8.712;2023-01-15T03:56:57;12.70;99.90
41678;DHT22;27364;49.026;8.712;2023-01-15T03:59:34;12.70;99.90
41678;DHT22;27364;49.026;8.712;2023-01-15T04:02:05;12.80;99.90
41678;DHT22;27364;49.026;8.712;2023-01-15T04:04:32;12.70;99.90
41678;DHT22;27364;49.026;8.712;2023-01-15T04:06:58;12.70;99.90
41678;DHT22;27364;49.026;8.712;2023-01-15T04:09:25;12.70;99.90
41678;DHT22;27364;49.026;8.712;2023-01-15T04:11:57;12.60;99.90
41678;DHT22;27364;49.026;8.712;2023-01-15T04:14:23;12.40;99.90
41678;DHT22;27364;49.026;8.712;2023-01-15T04:16:51;12.10;99.90
41678;DHT22;27364;49.026;8.712;2023-01-15T04:19:18;11.60;99.90
41678;DHT22;27364;49.026;8.712;2023-01-15T04:21:43;11.20;99.90
41678;DHT22;27364;49.026;8.712;2023-01-15T04:24:09;10.90;99.90
41678;DHT22;27364;49.026;8.712;2023-01-15T04:26:34;10.70;99.90
41678;DHT22;27364;49.026;8.712;2023-01-15T04:29:00;10.50;99.90
41678;DHT22;27364;49.026;8.712;2023-01-15T04:31:25;10.30;99.90
41678;DHT22;27364;49.026;8.712;2023-01-15T04:33:52;10.20;99.90
41678;DHT22;27364;49.026;8.712;2023-01-15T04:36:17;10.00;99.90
41678;DHT22;27364;49.026;8.712;2023-01-15T04:38:43;10.00;99.90
41678;DHT22;27364;49.026;8.712;2023-01-15T04:41:10;9.90;99.90
41678;DHT22;27364;49.026;8.712;2023-01-15T04:43:54;9.80;99.90
41678;DHT22;27364;49.026;8.712;2023-01-15T04:46:33;9.80;99.90
41678;DHT22;27364;49.026;8.712;2023-01-15T04:48:59;9.70;99.90
41678;DHT22;27364;49.026;8.712;2023-01-15T04:51:24;9.70;99.90
41678;DHT22;27364;49.026;8.712;2023-01-15T04:53:50;9.60;99.90
41678;DHT22;27364;49.026;8.712;2023-01-15T04:56:15;9.50;99.90
41678;DHT22;27364;49.026;8.712;2023-01-15T04:58:42;9.40;99.90
41678;DHT22;27364;49.026;8.712;2023-01-15T05:01:12;9.40;99.90
41678;DHT22;27364;49.026;8.712;2023-01-15T05:03:38;9.30;99.90
41678;DHT22;27364;49.026;8.712;2023-01-15T05:06:04;9.40;99.90
41678;DHT22;27364;49.026;8.712;2023-01-15T05:08:30;9.30;99.90
41678;DHT22;27364;49.026;8.712;2023-01-15T05:11:01;9.30;99.90
41678;DHT22;27364;49.026;8.712;2023-01-15T05:13:27;9.20;99.90
41678;DHT22;27364;49.026;8.712;2023-01-15T05:15:54;9.10;99.90
41678;DHT22;27364;49.026;8.712;2023-01-15T05:18:20;9.10;99.90
41678;DHT22;27364;49.026;8.712;2023-01-15T05:20:45;9.10;99.90
41678;DHT22;27364;49.026;8.712;2023-01-15T05:23:11;9.00;99.90
41678;DHT22;27364;49.026;8.712;2023-01-15T05:25:38;9.00;99.90
41678;DHT22;27364;49.026;8.712;2023-01-15T05:28:04;8.90;99.90
41678;DHT22;27364;49.026;8.712;2023-01-15T05:30:29;8.90;99.90
41678;DHT22;27364;49.026;8.712;2023-01-15T05:32:56;8.80;99.90
41678;DHT22;27364;49.026;8.712;2023-01-15T05:35:21;8.80;99.90
41678;DHT22;27364;49.026;8.712;2023-01-15T05:37:48;8.80;99.90
41678;DHT22;27364;49.026;8.712;2023-01-15T05:40:13;8.70;99.90
41678;DHT22;27364;49.026;8.712;2023-01-15T05:42:40;8.70;99.90
41678;DHT22;27364;49.026;8.712;2023-01-15T05:45:06;8.70;99.90
41678;DHT22;27364;49.026;8.712;2023-01-15T05:47:32;8.60;99.90
41678;DHT22;27364;49.026;8.712;2023-01-15T05:49:59;8.60;99.90
41678;DHT22;27364;49.026;8.712;2023-01-15T05:52:25;8.60;99.90
41678;DHT22;27364;49.026;8.712;2023-01-15T05:54:50;8.60;99.90
41678;DHT22;27364;49.026;8.712;2023-01-15T05:57:17;8.60;99.90
41678;DHT22;27364;49.026;8.712;2023-01-15T05:59:42;8.50;99.90
41678;DHT22;27364;49.026;8.712;2023-01-15T06:02:09;8.40;99.90
41678;DHT22;27364;49.026;8.712;2023-01-15T06:04:35;8.40;99.90
41678;DHT22;27364;49.026;8.712;2023-01-15T06:07:01;8.40;99.90
41678;DHT22;27364;49.026;8.712;2023-01-15T06:09:29;8.40;99.90
41678;DHT22;27364;49.026;8.712;2023-01-15T06:11:55;8.40;99.90
41678;DHT22;27364;49.026;8.712;2023-01-15T06:14:20;8.30;99.90
41678;DHT22;27364;49.026;8.712;2023-01-15T06:16:46;8.30;99.90
41678;DHT22;27364;49.026;8.712;2023-01-15T06:19:12;8.20;99.90
41678;DHT22;27364;49.026;8.712;2023-01-15T06:21:38;8.10;99.90
41678;DHT22;27364;49.026;8.712;2023-01-15T06:24:05;8.10;99.90
41678;DHT22;27364;49.026;8.712;2023-01-15T06:26:34;8.10;99.90
41678;DHT22;27364;49.026;8.712;2023-01-15T06:29:01;8.10;99.90
41678;DHT22;27364;49.026;8.712;2023-01-15T06:31:27;8.00;99.90
41678;DHT22;27364;49.026;8.712;2023-01-15T06:33:55;7.90;99.90
41678;DHT22;27364;49.026;8.712;2023-01-15T06:36:22;7.90;99.90
41678;DHT22;27364;49.026;8.712;2023-01-15T06:38:49;7.80;99.90
41678;DHT22;27364;49.026;8.712;2023-01-15T06:41:20;7.80;99.90
41678;DHT22;27364;49.026;8.712;2023-01-15T06:44:05;7.70;99.90
41678;DHT22;27364;49.026;8.712;2023-01-15T06:46:51;7.60;99.90
41678;DHT22;27364;49.026;8.712;2023-01-15T06:49:38;7.50;99.90
41678;DHT22;27364;49.026;8.712;2023-01-15T06:52:04;7.40;99.90
41678;DHT22;27364;49.026;8.712;2023-01-15T06:54:30;7.40;99.90
41678;DHT22;27364;49.026;8.712;2023-01-15T06:56:56;7.40;99.90
41678;DHT22;27364;49.026;8.712;2023-01-15T06:59:21;7.40;99.90
41678;DHT22;27364;49.026;8.712;2023-01-15T07:01:47;7.40;99.90
41678;DHT22;27364;49.026;8.712;2023-01-15T07:04:13;7.30;99.90
41678;DHT22;27364;49.026;8.712;2023-01-15T07:06:39;7.40;99.90
41678;DHT22;27364;49.026;8.712;2023-01-15T07:09:04;7.30;99.90
41678;DHT22;27364;49.026;8.712;2023-01-15T07:11:30;7.40;99.90
41678;DHT22;27364;49.026;8.712;2023-01-15T07:13:56;7.30;99.90
41678;DHT22;27364;49.026;8.712;2023-01-15T07:16:34;7.20;99.90
41678;DHT22;27364;49.026;8.712;2023-01-15T07:19:00;7.30;99.90
41678;DHT22;27364;49.026;8.712;2023-01-15T07:21:27;7.20;99.90
41678;DHT22;27364;49.026;8.712;2023-01-15T07:23:53;7.20;99.90
41678;DHT22;27364;49.026;8.712;2023-01-15T07:26:19;7.20;99.90
41678;DHT22;27364;49.026;8.712;2023-01-15T07:28:44;7.30;99.90
41678;DHT22;27364;49.026;8.712;2023-01-15T07:31:10;7.30;99.90
41678;DHT22;27364;49.026;8.712;2023-01-15T07:33:35;7.20;99.90
41678;DHT22;27364;49.026;8.712;2023-01-15T07:36:05;7.20;99.90
41678;DHT22;27364;49.026;8.712;2023-01-15T07:38:31;7.10;99.90
41678;DHT22;27364;49.026;8.712;2023-01-15T07:40:57;7.10;99.90
41678;DHT22;27364;49.026;8.712;2023-01-15T07:43:41;7.10;99.90
41678;DHT22;27364;49.026;8.712;2023-01-15T07:46:25;7.10;99.90
41678;DHT22;27364;49.026;8.712;2023-01-15T07:49:10;7.00;99.90
41678;DHT22;27364;49.026;8.712;2023-01-15T07:51:55;7.00;99.90
41678;DHT22;27364;49.026;8.712;2023-01-15T07:54:20;7.00;99.90
41678;DHT22;27364;49.026;8.712;2023-01-15T07:56:46;7.00;99.90
41678;DHT22;27364;49.026;8.712;2023-01-15T07:59:12;7.00;99.90
41678;DHT22;27364;49.026;8.712;2023-01-15T08:01:38;7.10;99.90
41678;DHT22;27364;49.026;8.712;2023-01-15T08:04:03;7.00;99.90
41678;DHT22;27364;49.026;8.712;2023-01-15T08:06:29;7.00;99.90
41678;DHT22;27364;49.026;8.712;2023-01-15T08:08:54;7.00;99.90
41678;DHT22;27364;49.026;8.712;2023-01-15T08:11:20;7.00;99.90
41678;DHT22;27364;49.026;8.712;2023-01-15T08:14:05;7.00;99.90
41678;DHT22;27364;49.026;8.712;2023-01-15T08:16:49;7.00;99.90
41678;DHT22;27364;49.026;8.712;2023-01-15T08:19:14;7.00;99.90
41678;DHT22;27364;49.026;8.712;2023-01-15T08:21:40;7.00;99.90
41678;DHT22;27364;49.026;8.712;2023-01-15T08:24:05;6.90;99.90
41678;DHT22;27364;49.026;8.712;2023-01-15T08:26:31;6.90;99.90
41678;DHT22;27364;49.026;8.712;2023-01-15T08:28:57;6.80;99.90
41678;DHT22;27364;49.026;8.712;2023-01-15T08:31:23;6.80;99.90
41678;DHT22;27364;49.026;8.712;2023-01-15T08:33:49;6.80;99.90
41678;DHT22;27364;49.026;8.712;2023-01-15T08:36:15;6.80;99.90
41678;DHT22;27364;49.026;8.712;2023-01-15T08:38:42;6.80;99.90
41678;DHT22;27364;49.026;8.712;2023-01-15T08:41:10;6.80;99.90
41678;DHT22;27364;49.026;8.712;2023-01-15T08:43:35;6.70;99.90
41678;DHT22;27364;49.026;8.712;2023-01-15T08:46:03;6.60;99.90
41678;DHT22;27364;49.026;8.712;2023-01-15T08:48:30;6.60;99.90
41678;DHT22;27364;49.026;8.712;2023-01-15T08:50:55;6.50;99.90
41678;DHT22;27364;49.026;8.712;2023-01-15T08:53:22;6.60;99.90
41678;DHT22;27364;49.026;8.712;2023-01-15T08:55:49;6.50;99.90
41678;DHT22;27364;49.026;8.712;2023-01-15T08:58:16;6.50;99.90
41678;DHT22;27364;49.026;8.712;2023-01-15T09:00:43;6.40;99.90
41678;DHT22;27364;49.026;8.712;2023-01-15T09:03:10;6.40;99.90
41678;DHT22;27364;49.026;8.712;2023-01-15T09:05:36;6.40;99.90
41678;DHT22;27364;49.026;8.712;2023-01-15T09:08:03;6.40;99.90
41678;DHT22;27364;49.026;8.712;2023-01-15T09:10:30;6.40;99.90
41678;DHT22;27364;49.026;8.712;2023-01-15T09:12:58;6.40;99.90
41678;DHT22;27364;49.026;8.712;2023-01-15T09:15:33;6.40;99.90
41678;DHT22;27364;49.026;8.712;2023-01-15T09:17:58;6.30;99.90
41678;DHT22;27364;49.026;8.712;2023-01-15T09:20:25;6.20;99.90
41678;DHT22;27364;49.026;8.712;2023-01-15T09:22:51;6.20;99.90
41678;DHT22;27364;49.026;8.712;2023-01-15T09:25:17;6.10;99.90
41678;DHT22;27364;49.026;8.712;2023-01-15T09:27:45;6.10;99.90
41678;DHT22;27364;49.026;8.712;2023-01-15T09:30:20;6.10;99.90
41678;DHT22;27364;49.026;8.712;2023-01-15T09:32:47;6.00;99.90
41678;DHT22;27364;49.026;8.712;2023-01-15T09:35:15;6.10;99.90
41678;DHT22;27364;49.026;8.712;2023-01-15T09:37:40;6.00;99.90
41678;DHT22;27364;49.026;8.712;2023-01-15T09:40:35;6.00;99.90
41678;DHT22;27364;49.026;8.712;2023-01-15T09:43:13;6.00;99.90
41678;DHT22;27364;49.026;8.712;2023-01-15T09:45:56;6.00;99.90
41678;DHT22;27364;49.026;8.712;2023-01-15T09:48:46;6.00;99.90
41678;DHT22;27364;49.026;8.712;2023-01-15T09:51:22;6.00;99.90
41678;DHT22;27364;49.026;8.712;2023-01-15T09:54:31;6.00;99.90
41678;DHT22;27364;49.026;8.712;2023-01-15T09:56:44;6.00;99.90
41678;DHT22;27364;49.026;8.712;2023-01-15T09:59:28;6.00;99.90
41678;DHT22;27364;49.026;8.712;2023-01-15T10:01:56;5.90;99.90
41678;DHT22;27364;49.026;8.712;2023-01-15T10:04:44;5.90;99.90
41678;DHT22;27364;49.026;8.712;2023-01-15T10:07:42;5.90;99.90
41678;DHT22;27364;49.026;8.712;2023-01-15T10:10:14;5.80;99.90
41678;DHT22;27364;49.026;8.712;2023-01-15T10:12:44;5.80;99.90
41678;DHT22;27364;49.026;8.712;2023-01-15T10:15:24;5.80;99.90
41678;DHT22;27364;49.026;8.712;2023-01-15T10:17:55;5.80;99.90
41678;DHT22;27364;49.026;8.712;2023-01-15T10:23:36;5.70;99.90
41678;DHT22;27364;49.026;8.712;2023-01-15T10:32:32;5.60;99.90
41678;DHT22;27364;49.026;8.712;2023-01-15T10:35:39;5.50;99.90
41678;DHT22;27364;49.026;8.712;2023-01-15T10:46:12;5.50;99.90
41678;DHT22;27364;49.026;8.712;2023-01-15T10:48:47;5.50;99.90
41678;DHT22;27364;49.026;8.712;2023-01-15T10:51:26;5.50;99.90
41678;DHT22;27364;49.026;8.712;2023-01-15T10:54:30;5.60;99.90
41678;DHT22;27364;49.026;8.712;2023-01-15T10:59:47;5.50;99.90
41678;DHT22;27364;49.026;8.712;2023-01-15T11:02:27;5.40;99.90
41678;DHT22;27364;49.026;8.712;2023-01-15T11:04:55;5.40;99.90
41678;DHT22;27364;49.026;8.712;2023-01-15T11:07:40;5.40;99.90
41678;DHT22;27364;49.026;8.712;2023-01-15T11:10:08;5.40;99.90
41678;DHT22;27364;49.026;8.712;2023-01-15T11:12:38;5.40;99.90
41678;DHT22;27364;49.026;8.712;2023-01-15T11:15:24;5.30;99.90
41678;DHT22;27364;49.026;8.712;2023-01-15T11:18:15;5.30;99.90
41678;DHT22;27364;49.026;8.712;2023-01-15T11:21:02;5.30;99.90
41678;DHT22;27364;49.026;8.712;2023-01-15T11:23:34;5.20;99.90
41678;DHT22;27364;49.026;8.712;2023-01-15T11:26:02;5.20;99.90
41678;DHT22;27364;49.026;8.712;2023-01-15T11:28:35;5.20;99.90
41678;DHT22;27364;49.026;8.712;2023-01-15T11:31:07;5.20;99.90
41678;DHT22;27364;49.026;8.712;2023-01-15T11:33:35;5.10;99.90
41678;DHT22;27364;49.026;8.712;2023-01-15T11:36:04;5.10;99.90
41678;DHT22;27364;49.026;8.712;2023-01-15T11:38:50;5.10;99.90
41678;DHT22;27364;49.026;8.712;2023-01-15T11:44:13;5.10;99.90
41678;DHT22;27364;49.026;8.712;2023-01-15T11:46:57;5.10;99.90
41678;DHT22;27364;49.026;8.712;2023-01-15T11:49:54;5.10;99.90
41678;DHT22;27364;49.026;8.712;2023-01-15T11:52:45;5.00;99.90
41678;DHT22;27364;49.026;8.712;2023-01-15T11:55:18;5.10;99.90
41678;DHT22;27364;49.026;8.712;2023-01-15T11:57:46;5.10;99.90
41678;DHT22;27364;49.026;8.712;2023-01-15T12:02:49;5.10;99.90
41678;DHT22;27364;49.026;8.712;2023-01-15T12:05:23;5.10;99.90
41678;DHT22;27364;49.026;8.712;2023-01-15T12:07:53;5.10;99.90
41678;DHT22;27364;49.026;8.712;2023-01-15T12:10:41;5.10;99.90
41678;DHT22;27364;49.026;8.712;2023-01-15T12:16:45;5.20;99.90
41678;DHT22;27364;49.026;8.712;2023-01-15T12:19:30;5.20;99.90
41678;DHT22;27364;49.026;8.712;2023-01-15T12:22:42;5.10;99.90
41678;DHT22;27364;49.026;8.712;2023-01-15T12:27:52;5.30;99.90
41678;DHT22;27364;49.026;8.712;2023-01-15T12:33:03;5.30;99.90
41678;DHT22;27364;49.026;8.712;2023-01-15T12:35:37;5.40;99.90
41678;DHT22;27364;49.026;8.712;2023-01-15T12:38:17;5.40;99.90
41678;DHT22;27364;49.026;8.712;2023-01-15T12:40:53;5.40;99.90
41678;DHT22;27364;49.026;8.712;2023-01-15T12:43:28;5.40;99.90
41678;DHT22;27364;49.026;8.712;2023-01-15T12:46:23;5.50;99.90
41678;DHT22;27364;49.026;8.712;2023-01-15T12:49:03;5.50;99.90
41678;DHT22;27364;49.026;8.712;2023-01-15T12:52:23;5.60;99.90
41678;DHT22;27364;49.026;8.712;2023-01-15T12:54:40;5.80;99.90
41678;DHT22;27364;49.026;8.712;2023-01-15T12:57:29;5.90;99.90
41678;DHT22;27364;49.026;8.712;2023-01-15T13:00:26;6.10;99.90
41678;DHT22;27364;49.026;8.712;2023-01-15T13:02:58;6.20;99.90
41678;DHT22;27364;49.026;8.712;2023-01-15T13:05:30;6.40;99.90
41678;DHT22;27364;49.026;8.712;2023-01-15T13:08:13;6.70;99.90
41678;DHT22;27364;49.026;8.712;2023-01-15T13:10:42;6.80;99.90
41678;DHT22;27364;49.026;8.712;2023-01-15T13:13:24;6.80;99.90
41678;DHT22;27364;49.026;8.712;2023-01-15T13:18:53;6.90;99.90
41678;DHT22;27364;49.026;8.712;2023-01-15T13:21:33;6.90;99.90
41678;DHT22;27364;49.026;8.712;2023-01-15T13:27:09;6.90;99.90
41678;DHT22;27364;49.026;8.712;2023-01-15T13:29:51;7.10;99.90
41678;DHT22;27364;49.026;8.712;2023-01-15T13:32:24;7.00;99.90
41678;DHT22;27364;49.026;8.712;2023-01-15T13:37:53;7.30;99.90
41678;DHT22;27364;49.026;8.712;2023-01-15T13:40:26;7.30;99.90
41678;DHT22;27364;49.026;8.712;2023-01-15T13:42:53;7.10;99.90
41678;DHT22;27364;49.026;8.712;2023-01-15T13:50:56;6.80;99.90
41678;DHT22;27364;49.026;8.712;2023-01-15T13:53:27;6.80;99.90
41678;DHT22;27364;49.026;8.712;2023-01-15T13:56:27;6.80;99.90
41678;DHT22;27364;49.026;8.712;2023-01-15T13:58:59;6.80;99.90
41678;DHT22;27364;49.026;8.712;2023-01-15T14:01:35;7.00;99.90
41678;DHT22;27364;49.026;8.712;2023-01-15T14:06:44;6.90;99.90
41678;DHT22;27364;49.026;8.712;2023-01-15T14:12:03;6.90;99.90
41678;DHT22;27364;49.026;8.712;2023-01-15T14:23:16;7.30;99.90
41678;DHT22;27364;49.026;8.712;2023-01-15T14:26:08;7.20;99.90
41678;DHT22;27364;49.026;8.712;2023-01-15T14:31:51;7.10;99.90
41678;DHT22;27364;49.026;8.712;2023-01-15T14:34:24;6.90;99.90
41678;DHT22;27364;49.026;8.712;2023-01-15T14:39:54;6.70;99.90
41678;DHT22;27364;49.026;8.712;2023-01-15T14:42:24;6.60;99.90
41678;DHT22;27364;49.026;8.712;2023-01-15T14:47:46;6.40;99.90
41678;DHT22;27364;49.026;8.712;2023-01-15T14:50:37;6.30;99.90
41678;DHT22;27364;49.026;8.712;2023-01-15T15:01:33;6.60;99.90
41678;DHT22;27364;49.026;8.712;2023-01-15T15:06:29;6.70;99.90
41678;DHT22;27364;49.026;8.712;2023-01-15T15:09:00;6.60;99.90
41678;DHT22;27364;49.026;8.712;2023-01-15T15:11:41;6.60;99.90
41678;DHT22;27364;49.026;8.712;2023-01-15T15:14:27;6.50;99.90
41678;DHT22;27364;49.026;8.712;2023-01-15T15:16:59;6.40;99.90
41678;DHT22;27364;49.026;8.712;2023-01-15T15:19:29;6.40;99.90
41678;DHT22;27364;49.026;8.712;2023-01-15T15:22:03;6.40;99.90
41678;DHT22;27364;49.026;8.712;2023-01-15T15:24:33;6.40;99.90
41678;DHT22;27364;49.026;8.712;2023-01-15T15:27:21;6.30;99.90
41678;DHT22;27364;49.026;8.712;2023-01-15T15:29:47;6.30;99.90
41678;DHT22;27364;49.026;8.712;2023-01-15T15:32:21;6.30;99.90
41678;DHT22;27364;49.026;8.712;2023-01-15T15:34:49;6.30;99.90
41678;DHT22;27364;49.026;8.712;2023-01-15T15:40:04;6.30;99.90
41678;DHT22;27364;49.026;8.712;2023-01-15T15:42:40;6.30;99.90
41678;DHT22;27364;49.026;8.712;2023-01-15T15:45:28;6.30;99.90
41678;DHT22;27364;49.026;8.712;2023-01-15T15:48:28;6.30;99.90
41678;DHT22;27364;49.026;8.712;2023-01-15T15:51:43;6.30;99.90
41678;DHT22;27364;49.026;8.712;2023-01-15T15:54:20;6.30;99.90
41678;DHT22;27364;49.026;8.712;2023-01-15T15:57:07;6.30;99.90
41678;DHT22;27364;49.026;8.712;2023-01-15T15:59:47;6.40;99.90
41678;DHT22;27364;49.026;8.712;2023-01-15T16:02:25;6.40;99.90
41678;DHT22;27364;49.026;8.712;2023-01-15T16:04:54;6.30;99.90
41678;DHT22;27364;49.026;8.712;2023-01-15T16:07:31;6.40;99.90
41678;DHT22;27364;49.026;8.712;2023-01-15T16:10:12;6.40;99.90
41678;DHT22;27364;49.026;8.712;2023-01-15T16:12:47;6.40;99.90
41678;DHT22;27364;49.026;8.712;2023-01-15T16:15:15;6.50;99.90
41678;DHT22;27364;49.026;8.712;2023-01-15T16:17:42;6.40;99.90
41678;DHT22;27364;49.026;8.712;2023-01-15T16:20:13;6.50;99.90
41678;DHT22;27364;49.026;8.712;2023-01-15T16:22:48;6.40;99.90
41678;DHT22;27364;49.026;8.712;2023-01-15T16:25:37;6.40;99.90
41678;DHT22;27364;49.026;8.712;2023-01-15T16:28:04;6.50;99.90
41678;DHT22;27364;49.026;8.712;2023-01-15T16:30:31;6.50;99.90
41678;DHT22;27364;49.026;8.712;2023-01-15T16:33:05;6.50;99.90
41678;DHT22;27364;49.026;8.712;2023-01-15T16:35:33;6.40;99.90
41678;DHT22;27364;49.026;8.712;2023-01-15T16:38:01;6.40;99.90
41678;DHT22;27364;49.026;8.712;2023-01-15T16:40:31;6.50;99.90
41678;DHT22;27364;49.026;8.712;2023-01-15T16:43:14;6.40;99.90
41678;DHT22;27364;49.026;8.712;2023-01-15T16:46:05;6.40;99.90
41678;DHT22;27364;49.026;8.712;2023-01-15T16:48:38;6.40;99.90
41678;DHT22;27364;49.026;8.712;2023-01-15T16:51:31;6.50;99.90
41678;DHT22;27364;49.026;8.712;2023-01-15T16:53:58;6.40;99.90
41678;DHT22;27364;49.026;8.712;2023-01-15T16:59:04;6.40;99.90
41678;DHT22;27364;49.026;8.712;2023-01-15T17:01:40;6.40;99.90
41678;DHT22;27364;49.026;8.712;2023-01-15T17:04:28;6.40;99.90
41678;DHT22;27364;49.026;8.712;2023-01-15T17:06:59;6.40;99.90
41678;DHT22;27364;49.026;8.712;2023-01-15T17:09:27;6.40;99.90
41678;DHT22;27364;49.026;8.712;2023-01-15T17:11:53;6.40;99.90
41678;DHT22;27364;49.026;8.712;2023-01-15T17:14:23;6.40;99.90
41678;DHT22;27364;49.026;8.712;2023-01-15T17:17:20;6.40;99.90
41678;DHT22;27364;49.026;8.712;2023-01-15T17:19:47;6.40;99.90
41678;DHT22;27364;49.026;8.712;2023-01-15T17:22:25;6.40;99.90
41678;DHT22;27364;49.026;8.712;2023-01-15T17:25:00;6.40;99.90
41678;DHT22;27364;49.026;8.712;2023-01-15T17:27:28;6.50;99.90
41678;DHT22;27364;49.026;8.712;2023-01-15T17:29:54;6.40;99.90
41678;DHT22;27364;49.026;8.712;2023-01-15T17:32:31;6.40;99.90
41678;DHT22;27364;49.026;8.712;2023-01-15T17:35:01;6.40;99.90
41678;DHT22;27364;49.026;8.712;2023-01-15T17:37:29;6.40;99.90
41678;DHT22;27364;49.026;8.712;2023-01-15T17:39:54;6.40;99.90
41678;DHT22;27364;49.026;8.712;2023-01-15T17:42:20;6.40;99.90
41678;DHT22;27364;49.026;8.712;2023-01-15T17:44:45;6.40;99.90
41678;DHT22;27364;49.026;8.712;2023-01-15T17:47:11;6.50;99.90
41678;DHT22;27364;49.026;8.712;2023-01-15T17:49:37;6.40;99.90
41678;DHT22;27364;49.026;8.712;2023-01-15T17:52:04;6.40;99.90
41678;DHT22;27364;49.026;8.712;2023-01-15T17:54:30;6.50;99.90
41678;DHT22;27364;49.026;8.712;2023-01-15T17:57:15;6.50;99.90
41678;DHT22;27364;49.026;8.712;2023-01-15T17:59:59;6.50;99.90
41678;DHT22;27364;49.026;8.712;2023-01-15T18:02:44;6.40;99.90
41678;DHT22;27364;49.026;8.712;2023-01-15T18:05:29;6.40;99.90